Time;durP1;ratioP1;P1;durP2;ratioP2;P2;SDS_P1;SDS_P2;PMS_P1;PMS_P2;Temp;Humidity;BMP_temperature;BMP_pressure;BME280_temperature;BME280_humidity;BME280_pressure;Samples;Min_cycle;Max_cycle;Signal;HPM_P1;HPM_P2
2022/05/08 00:01:48;;;;;;;23.73;4.88;;;7.70;99.90;;;;;;5045138;28;20397;-81
2022/05/08 00:04:14;;;;;;;28.77;4.95;;;7.00;99.90;;;;;;5046704;28;20056;-81
2022/05/08 00:06:39;;;;;;;25.73;5.10;;;6.90;99.90;;;;;;5045095;28;20474;-81
2022/05/08 00:09:05;;;;;;;27.67;5.38;;;7.00;99.90;;;;;;5014310;28;20473;-81
2022/05/08 00:11:31;;;;;;;23.92;3.97;;;7.10;99.90;;;;;;5045316;28;20478;-82
2022/05/08 00:13:56;;;;;;;20.60;4.40;;;7.10;99.90;;;;;;5046243;28;20398;-81
2022/05/08 00:16:23;;;;;;;25.08;5.20;;;6.90;99.90;;;;;;5045274;28;20100;-81
2022/05/08 00:18:48;;;;;;;24.42;5.03;;;6.80;99.90;;;;;;5045137;28;20050;-81
2022/05/08 00:21:14;;;;;;;24.85;4.07;;;6.80;99.90;;;;;;5045864;28;20056;-82
2022/05/08 00:23:40;;;;;;;29.00;5.30;;;6.80;99.90;;;;;;5046321;28;20038;-82
2022/05/08 00:26:07;;;;;;;25.60;4.20;;;6.80;99.90;;;;;;5027884;28;20544;-82
2022/05/08 00:28:35;;;;;;;27.70;5.07;;;6.70;99.90;;;;;;5046287;28;20449;-82
2022/05/08 00:31:01;;;;;;;22.40;4.50;;;6.90;99.90;;;;;;5044321;28;20057;-82
2022/05/08 00:33:26;;;;;;;27.88;4.30;;;6.60;99.90;;;;;;5045331;28;20079;-81
2022/05/08 00:35:52;;;;;;;20.35;4.68;;;6.60;99.90;;;;;;5044637;28;20095;-81
2022/05/08 00:38:17;;;;;;;29.30;5.65;;;6.60;99.90;;;;;;5046130;28;20061;-81
2022/05/08 00:40:43;;;;;;;23.98;4.57;;;6.50;99.90;;;;;;5045103;28;20492;-81
2022/05/08 00:43:32;;;;;;;24.70;4.57;;;6.50;99.90;;;;;;5028068;28;20145;-81
2022/05/08 00:45:59;;;;;;;23.40;4.30;;;6.50;99.90;;;;;;5044566;28;20057;-81
2022/05/08 00:48:25;;;;;;;25.30;5.25;;;6.40;99.90;;;;;;5027258;28;20045;-81
2022/05/08 00:50:52;;;;;;;24.75;5.32;;;6.40;99.90;;;;;;5025230;28;20064;-81
2022/05/08 00:53:18;;;;;;;23.80;4.85;;;6.30;99.90;;;;;;5042909;28;20050;-82
2022/05/08 00:55:44;;;;;;;21.83;4.35;;;6.30;99.90;;;;;;5024893;28;20046;-81
2022/05/08 00:58:10;;;;;;;23.75;4.75;;;6.30;99.90;;;;;;5042951;28;20108;-81
2022/05/08 01:00:35;;;;;;;21.70;4.10;;;6.30;99.90;;;;;;5040946;28;20516;-81
2022/05/08 01:03:01;;;;;;;29.33;4.85;;;6.20;99.90;;;;;;5042518;28;20714;-81
2022/05/08 01:05:27;;;;;;;18.88;4.93;;;6.20;99.90;;;;;;5042455;28;20045;-81
2022/05/08 01:07:53;;;;;;;22.23;4.68;;;6.20;99.90;;;;;;5024136;28;20054;-81
2022/05/08 01:10:18;;;;;;;26.70;5.32;;;6.20;99.90;;;;;;5042199;28;20037;-81
2022/05/08 01:12:44;;;;;;;26.75;4.22;;;6.20;99.90;;;;;;5042260;28;20108;-81
2022/05/08 01:15:16;;;;;;;19.90;4.18;;;6.10;99.90;;;;;;5041491;28;20124;-81
2022/05/08 01:17:42;;;;;;;20.35;4.57;;;6.10;99.90;;;;;;5041925;28;20091;-81
2022/05/08 01:20:08;;;;;;;25.08;4.43;;;6.10;99.90;;;;;;5041749;28;20046;-81
2022/05/08 01:22:34;;;;;;;24.77;4.50;;;6.00;99.90;;;;;;5041342;28;20046;-82
2022/05/08 01:25:00;;;;;;;24.40;4.43;;;6.00;99.90;;;;;;5041232;28;20041;-82
2022/05/08 01:27:26;;;;;;;19.08;4.15;;;6.10;99.90;;;;;;5042336;28;20049;-81
2022/05/08 01:29:52;;;;;;;24.13;4.57;;;6.00;99.90;;;;;;5008238;28;20177;-81
2022/05/08 01:32:19;;;;;;;19.55;4.00;;;6.20;99.90;;;;;;5041502;28;20528;-82
2022/05/08 01:34:44;;;;;;;24.92;4.95;;;5.90;99.90;;;;;;5041857;28;20129;-81
2022/05/08 01:37:10;;;;;;;22.95;4.35;;;6.70;99.90;;;;;;5040675;28;20683;-81
2022/05/08 01:39:35;;;;;;;20.63;4.03;;;5.90;99.90;;;;;;5042115;28;20049;-81
2022/05/08 01:42:04;;;;;;;15.40;3.28;;;5.80;99.90;;;;;;5009357;28;20050;-81
2022/05/08 01:44:30;;;;;;;22.88;4.25;;;5.80;99.90;;;;;;5007889;28;20073;-81
2022/05/08 01:49:40;;;;;;;29.67;5.90;;;5.90;99.90;;;;;;5041286;28;20054;-80
2022/05/08 01:52:07;;;;;;;18.85;3.95;;;5.70;99.90;;;;;;5040586;28;20050;-80
2022/05/08 01:54:33;;;;;;;20.67;3.53;;;5.60;99.90;;;;;;5024822;28;20052;-80
2022/05/08 01:56:59;;;;;;;21.92;4.45;;;5.60;99.90;;;;;;5039915;28;20042;-80
2022/05/08 01:59:25;;;;;;;13.95;3.63;;;5.60;99.90;;;;;;5010009;28;20042;-80
2022/05/08 02:01:51;;;;;;;27.58;4.43;;;5.50;99.90;;;;;;5038786;28;20472;-81
2022/05/08 02:04:17;;;;;;;25.17;3.88;;;5.80;99.90;;;;;;5009298;28;20061;-81
2022/05/08 02:06:43;;;;;;;14.73;3.53;;;5.50;99.90;;;;;;5041461;28;20049;-81
2022/05/08 02:09:09;;;;;;;25.92;3.58;;;5.60;99.90;;;;;;5040811;28;20478;-81
2022/05/08 02:11:34;;;;;;;16.55;3.70;;;5.40;99.90;;;;;;5040404;28;20466;-81
2022/05/08 02:14:02;;;;;;;15.10;3.50;;;5.40;99.90;;;;;;5040406;28;20041;-81
2022/05/08 02:16:29;;;;;;;25.30;4.28;;;5.40;99.90;;;;;;5040525;28;20054;-81
2022/05/08 02:18:55;;;;;;;19.27;3.75;;;5.40;99.90;;;;;;5008497;28;20069;-80
2022/05/08 02:21:21;;;;;;;16.60;3.40;;;5.40;99.90;;;;;;5041187;28;20478;-81
2022/05/08 02:23:46;;;;;;;20.52;3.30;;;5.40;99.90;;;;;;5040860;28;20374;-81
2022/05/08 02:26:12;;;;;;;20.95;4.13;;;5.40;99.90;;;;;;5041855;28;20060;-81
2022/05/08 02:28:39;;;;;;;20.05;4.53;;;5.80;99.90;;;;;;5027550;28;20045;-81
2022/05/08 02:31:05;;;;;;;19.60;3.25;;;5.50;99.90;;;;;;5027694;28;20056;-81
2022/05/08 02:33:32;;;;;;;17.88;3.40;;;5.50;99.90;;;;;;5026636;28;20061;-81
2022/05/08 02:35:58;;;;;;;20.15;3.78;;;5.50;99.90;;;;;;5024873;28;20063;-81
2022/05/08 02:38:24;;;;;;;17.88;3.80;;;5.40;99.90;;;;;;5008852;28;20476;-81
2022/05/08 02:40:51;;;;;;;22.13;4.28;;;5.40;99.90;;;;;;5022894;28;20064;-81
2022/05/08 02:43:20;;;;;;;30.10;3.90;;;5.30;99.90;;;;;;5040753;28;20414;-80
2022/05/08 02:45:47;;;;;;;17.88;4.32;;;5.30;99.90;;;;;;5022773;28;20076;-80
2022/05/08 02:48:13;;;;;;;16.73;3.85;;;5.20;99.90;;;;;;5008247;28;20042;-80
2022/05/08 02:50:38;;;;;;;21.58;4.03;;;5.30;99.90;;;;;;5040538;28;20046;-80
2022/05/08 02:53:04;;;;;;;19.90;3.85;;;5.30;99.90;;;;;;5008527;28;20618;-81
2022/05/08 02:58:32;;;;;;;21.23;4.25;;;5.50;99.90;;;;;;5040602;28;20117;-81
2022/05/08 03:01:00;;;;;;;16.75;3.22;;;5.30;99.90;;;;;;5038198;28;20137;-81
2022/05/08 03:03:25;;;;;;;18.00;3.90;;;5.20;99.90;;;;;;5040401;28;20077;-81
2022/05/08 03:05:51;;;;;;;22.58;3.95;;;5.20;99.90;;;;;;5007824;28;20181;-80
2022/05/08 03:08:18;;;;;;;20.13;3.90;;;5.20;99.90;;;;;;5039689;28;20473;-81
2022/05/08 03:13:29;;;;;;;21.98;4.10;;;5.20;99.90;;;;;;5039648;28;20540;-80
2022/05/08 03:15:55;;;;;;;13.85;3.22;;;5.20;99.90;;;;;;5021521;28;20057;-81
2022/05/08 03:18:21;;;;;;;13.35;3.30;;;5.30;99.90;;;;;;5007627;28;20050;-81
2022/05/08 03:20:47;;;;;;;15.57;3.42;;;5.20;99.90;;;;;;5023013;28;20493;-80
2022/05/08 03:23:14;;;;;;;17.92;3.65;;;5.30;99.90;;;;;;5022829;28;20042;-81
2022/05/08 03:25:40;;;;;;;17.70;4.03;;;5.40;99.90;;;;;;5039699;28;20064;-81
2022/05/08 03:28:05;;;;;;;12.95;3.45;;;5.20;99.90;;;;;;5039754;28;20045;-81
2022/05/08 03:30:31;;;;;;;17.75;3.92;;;5.20;99.90;;;;;;5038406;28;20386;-81
2022/05/08 03:32:58;;;;;;;12.70;2.75;;;5.30;99.90;;;;;;5039679;28;20494;-81
2022/05/08 03:35:24;;;;;;;23.48;3.35;;;5.10;99.90;;;;;;5006070;28;20073;-81
2022/05/08 03:37:50;;;;;;;16.83;3.30;;;5.10;99.90;;;;;;5039330;28;20593;-81
2022/05/08 03:40:16;;;;;;;15.20;3.35;;;5.10;99.90;;;;;;5023322;28;20050;-81
2022/05/08 03:42:42;;;;;;;14.63;3.58;;;5.10;99.90;;;;;;5007128;28;20129;-81
2022/05/08 03:45:09;;;;;;;8.60;2.30;;;5.10;99.90;;;;;;5039273;28;20614;-81
2022/05/08 03:47:34;;;;;;;15.82;2.90;;;5.10;99.90;;;;;;5039125;28;20449;-81
2022/05/08 03:50:02;;;;;;;16.88;3.17;;;5.10;99.90;;;;;;5038211;28;20050;-81
2022/05/08 03:52:28;;;;;;;12.45;3.47;;;5.30;99.90;;;;;;5023046;28;20046;-80
2022/05/08 03:54:54;;;;;;;14.48;3.10;;;5.20;99.90;;;;;;5039010;28;20085;-81
2022/05/08 03:57:19;;;;;;;13.07;3.17;;;5.20;99.90;;;;;;5039052;28;20133;-81
2022/05/08 03:59:45;;;;;;;14.98;2.88;;;5.90;99.90;;;;;;5038413;28;20049;-81
2022/05/08 04:02:11;;;;;;;13.82;3.60;;;5.30;99.90;;;;;;5038856;28;20062;-81
2022/05/08 04:04:36;;;;;;;15.52;3.33;;;5.30;99.90;;;;;;5038836;28;20050;-81
2022/05/08 04:07:02;;;;;;;14.93;2.92;;;5.30;99.90;;;;;;5006824;28;20042;-80
2022/05/08 04:09:28;;;;;;;14.25;2.90;;;5.30;99.90;;;;;;5039579;28;20081;-81
2022/05/08 04:11:54;;;;;;;11.95;2.90;;;5.30;99.90;;;;;;5006859;28;20092;-81
2022/05/08 04:14:19;;;;;;;20.10;3.17;;;5.40;99.90;;;;;;5039146;28;20050;-81
2022/05/08 04:16:47;;;;;;;11.02;2.85;;;5.40;99.90;;;;;;5038447;28;20085;-81
2022/05/08 04:19:12;;;;;;;15.40;2.88;;;5.40;99.90;;;;;;5038241;28;20048;-81
2022/05/08 04:21:38;;;;;;;9.48;2.20;;;5.40;99.90;;;;;;5022942;28;20128;-81
2022/05/08 04:24:17;;;;;;;15.40;2.70;;;5.50;99.90;;;;;;5040012;28;20201;-81
2022/05/08 04:26:43;;;;;;;15.98;3.03;;;5.40;99.90;;;;;;5042335;28;20046;-81
2022/05/08 04:29:08;;;;;;;13.32;2.70;;;5.40;99.90;;;;;;5043037;28;20397;-80
2022/05/08 04:31:34;;;;;;;13.15;2.90;;;5.40;99.90;;;;;;5035220;28;20045;-80
2022/05/08 04:34:01;;;;;;;15.23;3.58;;;5.40;99.90;;;;;;5042420;28;20410;-81
2022/05/08 04:36:27;;;;;;;14.50;3.05;;;5.50;99.90;;;;;;5043195;28;20528;-81
2022/05/08 04:38:52;;;;;;;16.25;2.75;;;5.50;99.90;;;;;;5042147;28;20053;-81
2022/05/08 04:41:18;;;;;;;15.50;2.78;;;6.20;99.90;;;;;;5042590;28;20038;-82
2022/05/08 04:43:44;;;;;;;12.82;2.53;;;5.60;99.90;;;;;;5026416;28;20048;-81
2022/05/08 04:46:11;;;;;;;14.15;3.00;;;5.60;99.90;;;;;;5040552;28;20046;-81
2022/05/08 04:48:38;;;;;;;14.75;2.78;;;5.60;99.90;;;;;;5009550;28;20061;-81
2022/05/08 04:51:04;;;;;;;16.88;3.53;;;5.80;99.90;;;;;;5042656;28;20046;-81
2022/05/08 04:53:31;;;;;;;11.77;2.25;;;5.90;99.90;;;;;;5042163;28;20046;-81
2022/05/08 04:55:57;;;;;;;15.40;2.55;;;6.00;99.90;;;;;;5008753;28;20064;-81
2022/05/08 04:58:25;;;;;;;9.43;2.53;;;6.10;99.90;;;;;;5011076;28;20041;-81
2022/05/08 05:00:51;;;;;;;17.17;2.38;;;6.20;99.90;;;;;;5040419;28;20058;-81
2022/05/08 05:03:17;;;;;;;8.50;2.25;;;6.90;99.90;;;;;;5009118;28;20045;-81
2022/05/08 05:05:42;;;;;;;18.52;2.50;;;7.10;99.90;;;;;;5042618;28;20056;-82
2022/05/08 05:08:08;;;;;;;20.02;2.63;;;7.40;99.90;;;;;;5041169;28;20103;-81
2022/05/08 05:10:33;;;;;;;13.30;2.58;;;7.30;99.90;;;;;;5041815;28;20509;-81
2022/05/08 05:12:59;;;;;;;15.82;3.00;;;7.10;99.90;;;;;;5025503;28;20398;-82
2022/05/08 05:15:25;;;;;;;12.90;2.47;;;7.30;99.90;;;;;;5040798;28;20132;-81
2022/05/08 05:17:52;;;;;;;16.60;2.60;;;7.80;99.90;;;;;;5024869;28;20513;-81
2022/05/08 05:20:18;;;;;;;16.27;2.60;;;7.50;99.90;;;;;;5042094;28;20081;-81
2022/05/08 05:22:44;;;;;;;12.77;2.60;;;7.60;99.90;;;;;;5041543;28;20124;-82
2022/05/08 05:25:10;;;;;;;10.35;2.63;;;7.80;99.90;;;;;;5041909;28;20049;-83
2022/05/08 05:27:35;;;;;;;13.60;2.42;;;7.70;99.90;;;;;;5042576;28;20046;-82
2022/05/08 05:30:03;;;;;;;16.75;2.33;;;7.80;99.90;;;;;;5006777;28;20057;-82
2022/05/08 05:32:28;;;;;;;12.27;2.55;;;7.80;99.90;;;;;;5041388;28;20053;-82
2022/05/08 05:34:54;;;;;;;16.85;2.35;;;7.90;99.90;;;;;;5023081;28;20038;-82
2022/05/08 05:37:20;;;;;;;9.38;1.98;;;7.90;99.90;;;;;;5025068;28;20046;-82
2022/05/08 05:39:46;;;;;;;15.25;2.75;;;8.00;99.90;;;;;;5024031;28;20048;-83
2022/05/08 05:42:12;;;;;;;14.88;2.60;;;8.20;99.90;;;;;;5024078;28;20041;-82
2022/05/08 05:44:38;;;;;;;14.50;2.13;;;8.60;99.90;;;;;;5024598;28;20153;-82
2022/05/08 05:49:48;;;;;;;14.55;2.10;;;8.20;99.90;;;;;;5040646;28;20108;-83
2022/05/08 05:52:14;;;;;;;13.35;2.70;;;8.40;99.90;;;;;;5026010;28;20463;-83
2022/05/08 05:54:39;;;;;;;14.35;2.40;;;8.60;99.90;;;;;;5040818;28;20049;-83
2022/05/08 05:57:05;;;;;;;16.08;2.38;;;8.80;99.90;;;;;;5022943;28;20136;-82
2022/05/08 05:59:30;;;;;;;14.02;2.38;;;9.00;99.90;;;;;;5007557;28;20050;-81
2022/05/08 06:01:56;;;;;;;19.83;2.65;;;9.10;99.90;;;;;;5023838;28;20081;-82
2022/05/08 06:04:22;;;;;;;11.23;2.13;;;9.30;99.90;;;;;;5040994;28;20482;-81
2022/05/08 06:06:48;;;;;;;17.05;2.45;;;10.20;99.90;;;;;;5034303;28;20041;-82
2022/05/08 06:09:14;;;;;;;12.52;2.08;;;9.50;99.90;;;;;;5052525;28;20037;-82
2022/05/08 06:11:39;;;;;;;12.60;2.03;;;9.40;99.90;;;;;;5026562;28;20041;-82
2022/05/08 06:14:05;;;;;;;9.73;2.00;;;9.50;99.90;;;;;;5052058;28;20072;-81
2022/05/08 06:16:31;;;;;;;17.30;2.25;;;9.70;99.90;;;;;;5022070;28;20103;-82
2022/05/08 06:18:58;;;;;;;12.15;2.08;;;9.90;99.90;;;;;;5009093;28;20045;-84
2022/05/08 06:21:25;;;;;;;12.85;2.15;;;10.50;99.90;;;;;;5027500;28;20046;-83
2022/05/08 06:23:52;;;;;;;12.18;1.80;;;10.40;99.90;;;;;;5026132;28;20538;-83
2022/05/08 06:26:18;;;;;;;12.13;1.85;;;10.50;99.90;;;;;;5051218;28;20081;-83
2022/05/08 06:28:45;;;;;;;12.27;1.90;;;10.60;99.90;;;;;;5027114;28;20064;-83
2022/05/08 06:31:15;;;;;;;14.85;2.35;;;10.50;99.90;;;;;;5047597;28;20560;-84
2022/05/08 06:33:43;;;;;;;15.98;2.20;;;10.70;99.90;;;;;;5026747;28;20057;-85
2022/05/08 06:36:09;;;;;;;14.00;2.10;;;10.90;99.90;;;;;;5025617;28;20045;-83
2022/05/08 06:38:35;;;;;;;14.80;1.98;;;11.50;99.90;;;;;;5051466;28;20041;-82
2022/05/08 06:41:01;;;;;;;14.63;2.05;;;11.00;99.90;;;;;;5009999;28;20115;-82
2022/05/08 06:43:26;;;;;;;13.55;2.42;;;11.50;99.90;;;;;;5052240;28;20041;-83
2022/05/08 06:45:52;;;;;;;10.02;1.73;;;11.50;99.90;;;;;;5007669;28;20042;-83
2022/05/08 06:48:18;;;;;;;16.63;2.42;;;10.90;99.90;;;;;;5009633;28;20047;-83
2022/05/08 06:50:43;;;;;;;12.95;2.00;;;10.90;99.90;;;;;;5010009;28;20053;-83
2022/05/08 06:53:09;;;;;;;14.55;2.58;;;10.70;99.90;;;;;;5008840;28;20037;-83
2022/05/08 06:55:35;;;;;;;19.67;2.63;;;10.60;99.90;;;;;;5026737;28;20055;-83
2022/05/08 06:58:02;;;;;;;17.63;2.55;;;10.70;99.90;;;;;;5010187;28;20081;-84
2022/05/08 07:03:12;;;;;;;12.43;2.33;;;10.80;99.90;;;;;;5027337;28;20052;-80
2022/05/08 07:05:45;;;;;;;9.32;1.90;;;10.80;99.90;;;;;;5027251;28;20054;-85
2022/05/08 07:08:10;;;;;;;14.75;2.03;;;11.00;99.90;;;;;;5042864;28;20760;-82
2022/05/08 07:10:36;;;;;;;11.18;1.92;;;11.30;99.90;;;;;;5025385;28;20128;-81
2022/05/08 07:13:02;;;;;;;20.10;2.55;;;11.10;99.90;;;;;;5027159;28;20045;-80
2022/05/08 07:15:28;;;;;;;17.58;1.98;;;11.00;99.90;;;;;;5024325;28;20417;-82
2022/05/08 07:17:54;;;;;;;24.65;2.85;;;11.50;99.90;;;;;;5027220;28;20091;-83
2022/05/08 07:20:19;;;;;;;15.50;2.63;;;10.80;99.90;;;;;;5027301;28;20076;-83
2022/05/08 07:22:45;;;;;;;19.23;2.75;;;10.80;99.90;;;;;;5050243;28;20744;-83
2022/05/08 07:25:12;;;;;;;10.70;1.98;;;11.20;99.90;;;;;;5026015;28;20052;-83
2022/05/08 07:27:39;;;;;;;20.40;2.45;;;11.10;99.90;;;;;;5025945;28;20379;-83
2022/05/08 07:30:06;;;;;;;13.60;2.15;;;11.50;99.90;;;;;;5024287;28;20045;-83
2022/05/08 07:32:33;;;;;;;11.63;2.00;;;11.50;99.90;;;;;;5024742;28;20183;-83
2022/05/08 07:37:43;;;;;;;12.90;2.20;;;12.00;99.90;;;;;;5024926;28;20408;-83
2022/05/08 07:40:11;;;;;;;14.40;2.28;;;12.00;99.90;;;;;;5009567;28;20056;-84
2022/05/08 07:42:36;;;;;;;14.95;2.03;;;12.00;99.90;;;;;;5024498;28;20412;-84
2022/05/08 07:45:03;;;;;;;10.80;1.75;;;12.10;99.90;;;;;;5008576;28;20038;-84
2022/05/08 07:47:29;;;;;;;14.85;2.35;;;12.20;99.90;;;;;;5020891;28;20088;-84
2022/05/08 07:49:54;;;;;;;12.95;1.63;;;12.40;99.90;;;;;;5007990;28;20072;-84
2022/05/08 07:52:20;;;;;;;12.65;1.92;;;12.50;99.90;;;;;;5025311;28;20091;-84
2022/05/08 07:54:46;;;;;;;18.40;2.03;;;12.50;99.90;;;;;;5025422;28;20092;-83
2022/05/08 07:57:12;;;;;;;12.48;2.20;;;12.40;99.90;;;;;;5025216;28;20052;-83
2022/05/08 07:59:38;;;;;;;18.90;2.40;;;12.40;99.90;;;;;;5055200;28;20045;-83
2022/05/08 08:02:04;;;;;;;12.48;2.10;;;12.50;99.90;;;;;;5025989;28;20485;-83
2022/05/08 08:04:29;;;;;;;11.65;2.08;;;12.60;99.90;;;;;;5027977;28;20037;-84
2022/05/08 08:06:55;;;;;;;12.55;2.03;;;12.60;99.90;;;;;;5029395;28;20895;-84
2022/05/08 08:09:21;;;;;;;12.68;2.05;;;12.50;99.90;;;;;;5030468;28;20048;-83
2022/05/08 08:11:47;;;;;;;18.08;2.90;;;12.30;99.90;;;;;;5028719;28;20470;-84
2022/05/08 08:14:13;;;;;;;13.75;2.15;;;12.10;99.90;;;;;;5029604;28;20045;-83
2022/05/08 08:16:39;;;;;;;13.20;2.60;;;11.90;99.90;;;;;;5011934;28;20072;-83
2022/05/08 08:19:05;;;;;;;11.90;2.22;;;12.20;99.90;;;;;;5029529;28;20380;-84
2022/05/08 08:21:33;;;;;;;14.43;2.30;;;12.20;99.90;;;;;;5054558;28;20502;-84
2022/05/08 08:23:59;;;;;;;15.60;2.28;;;11.90;99.90;;;;;;5028894;28;20884;-84
2022/05/08 08:26:25;;;;;;;13.75;2.28;;;12.10;99.90;;;;;;5026495;28;20041;-84
2022/05/08 08:28:50;;;;;;;14.77;1.95;;;12.40;99.90;;;;;;5029925;28;20132;-84
2022/05/08 08:31:16;;;;;;;12.00;2.28;;;12.50;99.90;;;;;;5052633;28;20555;-83
2022/05/08 08:33:44;;;;;;;13.55;2.13;;;12.90;99.90;;;;;;5028949;28;20041;-82
2022/05/08 08:36:11;;;;;;;11.93;2.10;;;12.70;99.90;;;;;;5027663;28;20053;-84
2022/05/08 08:38:38;;;;;;;13.88;2.30;;;12.70;99.90;;;;;;5028321;28;20099;-83
2022/05/08 08:41:05;;;;;;;16.42;2.08;;;12.60;99.90;;;;;;5028134;28;20073;-81
2022/05/08 08:49:05;;;;;;;12.45;2.10;;;12.70;99.90;;;;;;5055683;28;20531;-83
2022/05/08 08:51:33;;;;;;;11.82;2.38;;;12.80;99.90;;;;;;5054749;28;20409;-84
2022/05/08 08:53:59;;;;;;;12.07;2.00;;;12.70;99.90;;;;;;5011351;28;20099;-84
2022/05/08 08:56:24;;;;;;;13.82;2.60;;;12.80;99.90;;;;;;5023551;28;20041;-83
2022/05/08 08:58:51;;;;;;;14.27;2.63;;;13.10;99.90;;;;;;5027447;28;20045;-82
2022/05/08 09:01:16;;;;;;;14.25;2.15;;;13.20;99.90;;;;;;5011340;28;20095;-83
2022/05/08 09:03:42;;;;;;;16.35;2.58;;;13.30;99.90;;;;;;5029881;28;20064;-83
2022/05/08 09:06:09;;;;;;;13.30;2.80;;;13.40;99.90;;;;;;5027344;28;20619;-83
2022/05/08 09:08:36;;;;;;;12.75;2.38;;;13.50;99.90;;;;;;5028689;28;20061;-84
2022/05/08 09:11:02;;;;;;;16.75;2.28;;;13.60;99.90;;;;;;5027133;28;20058;-84
2022/05/08 09:13:29;;;;;;;16.95;2.50;;;13.70;99.90;;;;;;5027660;28;20079;-84
2022/05/08 09:16:03;;;;;;;17.65;2.50;;;13.70;99.90;;;;;;5010159;28;20497;-84
2022/05/08 09:18:29;;;;;;;10.55;1.77;;;13.70;99.90;;;;;;5009670;28;20049;-84
2022/05/08 09:21:54;;;;;;;15.15;2.25;;;13.70;99.90;;;;;;5010858;28;20046;-85
2022/05/08 09:23:42;;;;;;;16.40;2.67;;;13.50;99.90;;;;;;5027848;28;20042;-84
2022/05/08 09:26:08;;;;;;;13.10;2.60;;;13.50;99.90;;;;;;5012187;28;20499;-84
2022/05/08 09:28:43;;;;;;;15.70;2.67;;;13.50;99.90;;;;;;5052910;28;20037;-83
2022/05/08 09:31:13;;;;;;;10.95;2.08;;;13.30;99.90;;;;;;5048981;28;20041;-84
2022/05/08 09:33:47;;;;;;;12.60;2.40;;;13.20;99.90;;;;;;5052722;28;20053;-84
2022/05/08 09:36:20;;;;;;;14.15;2.35;;;13.30;99.90;;;;;;5024811;28;20049;-83
2022/05/08 09:38:48;;;;;;;20.67;2.88;;;13.50;99.90;;;;;;5010781;28;20068;-85
2022/05/08 09:41:17;;;;;;;13.32;2.35;;;13.60;99.90;;;;;;5027109;28;20069;-84
2022/05/08 09:43:43;;;;;;;13.27;2.08;;;13.80;99.90;;;;;;5052757;28;20133;-86
2022/05/08 09:46:09;;;;;;;15.27;2.10;;;13.50;99.90;;;;;;5051947;28;20136;-84
2022/05/08 09:48:36;;;;;;;13.70;2.40;;;13.50;99.90;;;;;;5008475;28;20041;-84
2022/05/08 09:51:06;;;;;;;12.55;2.17;;;13.50;99.90;;;;;;5048852;28;20132;-83
2022/05/08 09:53:33;;;;;;;10.75;1.80;;;13.40;99.90;;;;;;5030031;28;20060;-84
2022/05/08 09:56:01;;;;;;;11.98;2.20;;;13.70;99.90;;;;;;5009370;28;20532;-83
2022/05/08 09:58:28;;;;;;;12.30;2.08;;;13.50;99.90;;;;;;5049698;28;20046;-85
2022/05/08 10:00:56;;;;;;;15.20;2.70;;;13.50;99.90;;;;;;5007978;28;20455;-84
2022/05/08 10:03:22;;;;;;;12.35;1.98;;;13.60;99.90;;;;;;5051757;28;20105;-84
2022/05/08 10:05:48;;;;;;;11.90;2.17;;;13.60;99.90;;;;;;5051581;28;20046;-84
2022/05/08 10:08:17;;;;;;;17.75;2.80;;;13.60;99.90;;;;;;5027602;28;20033;-84
2022/05/08 10:13:53;;;;;;;19.15;2.67;;;13.80;99.90;;;;;;5050145;28;20053;-84
2022/05/08 10:16:46;;;;;;;11.10;2.28;;;14.00;99.90;;;;;;5049635;28;20077;-82
2022/05/08 10:19:17;;;;;;;11.75;2.20;;;14.10;99.90;;;;;;5033562;28;20517;-82
2022/05/08 10:22:07;;;;;;;16.02;2.65;;;14.10;99.90;;;;;;5026301;28;20124;-82
2022/05/08 10:24:35;;;;;;;13.88;2.35;;;14.00;99.90;;;;;;5024569;28;20160;-82
2022/05/08 10:27:08;;;;;;;15.98;2.78;;;14.00;99.90;;;;;;5009579;28;20527;-82
2022/05/08 10:29:34;;;;;;;13.43;2.35;;;14.00;99.90;;;;;;5051504;28;20779;-81
2022/05/08 10:31:59;;;;;;;14.38;2.58;;;14.10;99.90;;;;;;5025028;28;20061;-81
2022/05/08 10:34:31;;;;;;;14.27;2.53;;;14.20;99.90;;;;;;5051337;28;20060;-80
2022/05/08 10:37:24;;;;;;;13.48;2.75;;;14.20;99.90;;;;;;5007270;28;20473;-80
2022/05/08 10:39:51;;;;;;;14.23;2.27;;;14.20;99.90;;;;;;5004829;28;20057;-81
2022/05/08 10:42:29;;;;;;;18.25;2.22;;;14.20;99.90;;;;;;5011010;28;20091;-82
2022/05/08 10:44:56;;;;;;;13.60;2.88;;;14.30;99.90;;;;;;5023426;28;20083;-82
2022/05/08 10:47:32;;;;;;;12.27;2.03;;;14.30;99.90;;;;;;5009437;28;20065;-82
2022/05/08 10:49:58;;;;;;;13.57;2.58;;;14.30;99.90;;;;;;5050392;28;20075;-82
2022/05/08 10:52:24;;;;;;;14.13;2.60;;;14.30;99.90;;;;;;5042344;28;20053;-80
2022/05/08 10:54:58;;;;;;;12.45;2.33;;;14.40;99.90;;;;;;5025100;28;20042;-78
2022/05/08 10:57:32;;;;;;;13.32;2.38;;;14.50;99.90;;;;;;5027792;28;20434;-78
2022/05/08 10:59:59;;;;;;;12.07;1.83;;;14.50;99.90;;;;;;5026002;28;20496;-80
2022/05/08 11:02:43;;;;;;;16.67;2.83;;;14.50;99.90;;;;;;5025424;28;20382;-80
2022/05/08 11:05:11;;;;;;;17.77;2.17;;;14.60;99.90;;;;;;5023302;28;20045;-81
2022/05/08 11:07:38;;;;;;;13.48;2.47;;;14.70;99.90;;;;;;5007138;28;20041;-78
2022/05/08 11:10:15;;;;;;;15.00;2.53;;;14.70;99.90;;;;;;5054032;28;20093;-78
2022/05/08 11:13:06;;;;;;;14.23;2.08;;;14.80;99.90;;;;;;5024694;28;20052;-78
2022/05/08 11:15:43;;;;;;;10.48;2.13;;;14.90;99.90;;;;;;5039764;28;20418;-78
2022/05/08 11:18:10;;;;;;;9.68;2.17;;;14.90;99.90;;;;;;5025914;28;20099;-80
2022/05/08 11:20:37;;;;;;;17.52;2.15;;;14.90;99.90;;;;;;5008483;28;20042;-78
2022/05/08 11:23:05;;;;;;;13.15;2.22;;;14.90;99.90;;;;;;5050755;28;20041;-78
2022/05/08 11:25:32;;;;;;;13.23;2.00;;;14.90;99.90;;;;;;5050454;28;20044;-80
2022/05/08 11:27:58;;;;;;;16.98;2.63;;;15.00;99.90;;;;;;5024797;28;20079;-79
2022/05/08 11:30:33;;;;;;;11.82;2.13;;;15.00;99.90;;;;;;5005833;28;20029;-79
2022/05/08 11:36:04;;;;;;;12.30;2.05;;;15.00;99.90;;;;;;5049564;28;20778;-79
2022/05/08 11:38:42;;;;;;;10.35;2.25;;;15.00;99.90;;;;;;5023586;28;20049;-79
2022/05/08 11:41:09;;;;;;;15.20;1.90;;;15.10;99.90;;;;;;5023186;28;20045;-80
2022/05/08 11:43:44;;;;;;;14.35;2.38;;;15.20;99.90;;;;;;5027035;28;20046;-79
2022/05/08 11:46:17;;;;;;;15.05;2.53;;;15.10;99.90;;;;;;5026694;28;20050;-77
2022/05/08 11:48:46;;;;;;;14.98;2.38;;;15.20;99.90;;;;;;5027234;28;20128;-80
2022/05/08 11:51:14;;;;;;;15.88;2.38;;;15.30;99.90;;;;;;5058981;28;20049;-79
2022/05/08 11:53:42;;;;;;;10.73;2.28;;;15.20;99.90;;;;;;5026180;28;20057;-78
2022/05/08 11:56:29;;;;;;;11.60;2.00;;;15.20;99.90;;;;;;5026127;28;20057;-79
2022/05/08 11:59:01;;;;;;;7.90;1.98;;;15.30;99.90;;;;;;5040927;28;20085;-78
2022/05/08 12:01:30;;;;;;;12.68;1.70;;;15.40;99.90;;;;;;5006869;28;20113;-81
2022/05/08 12:04:17;;;;;;;12.70;2.08;;;15.50;99.90;;;;;;5005178;28;20136;-79
2022/05/08 12:07:00;;;;;;;13.90;2.40;;;15.50;99.90;;;;;;5005815;28;20492;-81
2022/05/08 12:09:27;;;;;;;;;;;15.50;99.30;;;;;;5039166;28;20045;-79
2022/05/08 12:11:53;;;;;;;9.82;1.92;;;15.50;99.20;;;;;;5006733;28;19933;-79
2022/05/08 12:14:30;;;;;;;11.25;2.28;;;15.60;99.90;;;;;;5008019;28;20054;-79
2022/05/08 12:17:01;;;;;;;13.38;2.05;;;15.80;99.80;;;;;;5042164;28;20417;-79
2022/05/08 12:19:27;;;;;;;15.02;2.25;;;15.70;99.90;;;;;;5048444;28;20056;-79
2022/05/08 12:21:54;;;;;;;17.17;2.22;;;15.80;99.70;;;;;;5005104;28;20125;-77
2022/05/08 12:24:21;;;;;;;12.45;2.20;;;15.60;99.10;;;;;;5005686;28;20049;-78
2022/05/08 12:26:47;;;;;;;10.05;2.30;;;15.70;98.30;;;;;;5005133;28;20048;-78
2022/05/08 12:29:23;;;;;;;10.43;2.10;;;15.70;97.40;;;;;;5006152;28;20046;-78
2022/05/08 12:31:51;;;;;;;11.75;2.03;;;15.40;98.00;;;;;;5005536;28;20058;-78
2022/05/08 12:34:18;;;;;;;13.00;2.67;;;15.40;99.70;;;;;;5006296;28;20108;-77
2022/05/08 12:36:44;;;;;;;15.30;2.53;;;15.40;99.80;;;;;;5007358;28;20061;-78
2022/05/08 12:39:10;;;;;;;10.93;1.95;;;15.40;99.20;;;;;;5039092;28;20461;-79
2022/05/08 12:41:37;;;;;;;11.57;2.53;;;15.40;98.50;;;;;;5007160;28;20046;-78
2022/05/08 12:44:05;;;;;;;12.73;2.13;;;15.40;98.30;;;;;;5005413;28;20081;-78
2022/05/08 12:46:31;;;;;;;11.98;2.03;;;15.40;97.70;;;;;;5024710;28;20046;-79
2022/05/08 12:49:02;;;;;;;15.63;1.90;;;15.40;99.10;;;;;;5025921;28;20045;-78
2022/05/08 12:51:29;;;;;;;14.45;2.03;;;15.50;98.70;;;;;;5041940;28;20089;-78
2022/05/08 12:53:55;;;;;;;13.45;2.65;;;15.50;98.10;;;;;;5010630;28;20417;-79
2022/05/08 12:56:21;;;;;;;9.02;1.70;;;15.50;98.00;;;;;;5043269;28;20050;-79
2022/05/08 13:01:31;;;;;;;14.23;1.67;;;15.50;97.50;;;;;;5041594;28;20057;-80
2022/05/08 13:03:56;;;;;;;10.82;2.22;;;15.50;97.80;;;;;;5042759;28;20491;-79
2022/05/08 13:06:22;;;;;;;12.18;1.80;;;15.70;97.10;;;;;;5009420;28;20077;-80
2022/05/08 13:08:48;;;;;;;12.80;1.90;;;15.40;95.50;;;;;;5010739;28;20547;-80
2022/05/08 13:11:13;;;;;;;18.15;2.13;;;15.40;96.50;;;;;;5025205;28;20485;-80
2022/05/08 13:13:39;;;;;;;12.73;2.42;;;15.40;96.40;;;;;;5029347;28;20052;-80
2022/05/08 13:16:05;;;;;;;14.15;2.38;;;15.40;97.20;;;;;;5027187;28;20088;-80